Covington, Iowa
Current Conditions -  °F | °C
As of 12:00 PM on Monday 26 Jan 2015 (Local Time) from KCID Reporting Station
Overcast Overcast  
Wind Chill: -5°   Ceiling: 1600
Heat Index: -1°   Visibility: 8mi
Dew Point: -2°   Wind: 9mph
Humidity: 89%   Direction: 170°S
Pressure: 29.8"   Gusts: NA
Location:  42.0483°N, 91.7982°W
Report Text: KCID 261800Z 17008KT 8SM OVC016 M01/M02 A2980 RMK AO2 T10061022
Loading
Personal Weather Stations






























Interactive Weather Map New forecast layout! Learn more

10-Day Weather Forecast

Advertisements
Track Severe Weather on mobile